Mid Fortune — ZGCG8 — position and weather

sailwx.info

Track history (hours):
 
Tides and Currents Weather Stations Pressure Air Temp Water Temp Dewpoint Dewpoint Depression Visibility Wind Speed Wind Dir Waves Ship Positions

Mid Fortune

Last reported at 2016-Feb-07 19:33 UTC. Time now 2016-Feb-08 10:04 UTC.
Position N 22°28' E 120°04'.

Length 147 m; draft 7.1 m.

Type: Tanker. MMSI: 319182000.

Date/timePositionNaut miles runAvg speedWind from/ knotsBaromVisibWave heightAir tempDewpointWater temp
2016-Feb-07 19:33N 22°28' E 120°04'1212.1
2016-Feb-07 18:33N 22°38' E 120°12'7 6.0
2016-Feb-07 17:27N 22°35' E 120°18'0 0.1
2016-Feb-07 16:33N 22°35' E 120°18'0 0.0
2016-Feb-07 15:27N 22°35' E 120°18'0 0.0
2016-Feb-07 14:33N 22°35' E 120°18'0 0.0
2016-Feb-07 13:33N 22°35' E 120°18'0 0.0
2016-Feb-07 12:27N 22°35' E 120°18'0 0.0
2016-Feb-07 11:33N 22°35' E 120°18'0 0.0
2016-Feb-07 10:33N 22°35' E 120°18'0 0.0
2016-Feb-07 09:33N 22°35' E 120°18'0 0.0
2016-Feb-07 08:33N 22°35' E 120°18'0 0.0
2016-Feb-07 07:33N 22°35' E 120°18'0 0.0
2016-Feb-07 06:33N 22°35' E 120°18'0 0.0
2016-Feb-07 05:27N 22°35' E 120°18'0 0.0
2016-Feb-07 04:27N 22°35' E 120°18'0 0.0
2016-Feb-07 03:33N 22°35' E 120°18'0 0.0
2016-Feb-07 02:33N 22°35' E 120°18'0 0.0
2016-Feb-07 01:33N 22°35' E 120°18'4 4.0
2016-Feb-07 00:33N 22°37' E 120°14'8 8.1
2016-Feb-06 23:33N 22°40' E 120°06'1111.5
2016-Feb-06 22:33N 22°50' E 119°60'42911.3
2016-Feb-05 08:28N 29°37' E 122°30'1212.3
2016-Feb-05 07:30N 29°45' E 122°19'1010.2
2016-Feb-05 06:32N 29°52' E 122°11'1212.0
2016-Feb-05 05:33N 29°57' E 121°59'2 0.1
2016-Feb-04 06:31N 29°57' E 121°57'5 5.0
2016-Feb-04 05:33N 29°55' E 122°02'10 9.4
2016-Feb-04 04:32N 29°51' E 122°12'1110.6
2016-Feb-04 03:29N 29°44' E 122°22'2 1.8
2016-Feb-04 02:32N 29°44' E 122°24'1 1.3
2016-Feb-04 01:30N 29°45' E 122°23'1 1.4
2016-Feb-04 00:27N 29°45' E 122°22'0 0.2
2016-Feb-03 23:25N 29°45' E 122°22'4 4.9
2016-Feb-03 22:33N 29°45' E 122°27'81 6.7
2016-Feb-03 10:19N 31°04' E 122°03'910.3
2016-Feb-03 09:24N 31°09' E 121°54'1112.5
2016-Feb-03 08:33N 31°16' E 121°45'1211.9
2016-Feb-03 07:33N 31°24' E 121°34'9 9.2
2016-Feb-03 06:34N 31°29' E 121°26'10 9.5
2016-Feb-03 05:33N 31°36' E 121°17'1413.5
2016-Feb-03 04:31N 31°44' E 121°04'4 0.2
2016-Feb-02 09:13N 31°46' E 120°60'2 3.6
2016-Feb-02 08:33N 31°47' E 120°57'1413.6
2016-Feb-02 07:33N 31°59' E 120°50'1211.8
2016-Feb-02 06:33N 32°00' E 120°36'1110.6
2016-Feb-02 05:29N 32°01' E 120°23'  
2016-Jan-30 15:22N 32°04' E 119°56'  
Track history (hours):
 
Tides and Currents Weather Stations Pressure Air Temp Water Temp Dewpoint Dewpoint Depression Visibility Wind Speed Wind Dir Waves Ship Positions

Mid Fortune

Last reported at 2016-Feb-07 19:33 UTC. Time now 2016-Feb-08 10:04 UTC.
Position N 22°28' E 120°04'.

Length 147 m; draft 7.1 m.

Type: Tanker. MMSI: 319182000.

Date/timePositionNaut miles runAvg speedWind from/ knotsBaromVisibWave heightAir tempDewpointWater temp
2016-Feb-07 19:33N 22°28' E 120°04'1212.1
2016-Feb-07 18:33N 22°38' E 120°12'7 6.0
2016-Feb-07 17:27N 22°35' E 120°18'0 0.1
2016-Feb-07 16:33N 22°35' E 120°18'0 0.0
2016-Feb-07 15:27N 22°35' E 120°18'0 0.0
2016-Feb-07 14:33N 22°35' E 120°18'0 0.0
2016-Feb-07 13:33N 22°35' E 120°18'0 0.0
2016-Feb-07 12:27N 22°35' E 120°18'0 0.0
2016-Feb-07 11:33N 22°35' E 120°18'0 0.0
2016-Feb-07 10:33N 22°35' E 120°18'0 0.0
2016-Feb-07 09:33N 22°35' E 120°18'0 0.0
2016-Feb-07 08:33N 22°35' E 120°18'0 0.0
2016-Feb-07 07:33N 22°35' E 120°18'0 0.0
2016-Feb-07 06:33N 22°35' E 120°18'0 0.0
2016-Feb-07 05:27N 22°35' E 120°18'0 0.0
2016-Feb-07 04:27N 22°35' E 120°18'0 0.0
2016-Feb-07 03:33N 22°35' E 120°18'0 0.0
2016-Feb-07 02:33N 22°35' E 120°18'0 0.0
2016-Feb-07 01:33N 22°35' E 120°18'4 4.0
2016-Feb-07 00:33N 22°37' E 120°14'8 8.1
2016-Feb-06 23:33N 22°40' E 120°06'1111.5
2016-Feb-06 22:33N 22°50' E 119°60'42911.3
2016-Feb-05 08:28N 29°37' E 122°30'1212.3
2016-Feb-05 07:30N 29°45' E 122°19'1010.2
2016-Feb-05 06:32N 29°52' E 122°11'1212.0
2016-Feb-05 05:33N 29°57' E 121°59'2 0.1
2016-Feb-04 06:31N 29°57' E 121°57'5 5.0
2016-Feb-04 05:33N 29°55' E 122°02'10 9.4
2016-Feb-04 04:32N 29°51' E 122°12'1110.6
2016-Feb-04 03:29N 29°44' E 122°22'2 1.8
2016-Feb-04 02:32N 29°44' E 122°24'1 1.3
2016-Feb-04 01:30N 29°45' E 122°23'1 1.4
2016-Feb-04 00:27N 29°45' E 122°22'0 0.2
2016-Feb-03 23:25N 29°45' E 122°22'4 4.9
2016-Feb-03 22:33N 29°45' E 122°27'81 6.7
2016-Feb-03 10:19N 31°04' E 122°03'910.3
2016-Feb-03 09:24N 31°09' E 121°54'1112.5
2016-Feb-03 08:33N 31°16' E 121°45'1211.9
2016-Feb-03 07:33N 31°24' E 121°34'9 9.2
2016-Feb-03 06:34N 31°29' E 121°26'10 9.5
2016-Feb-03 05:33N 31°36' E 121°17'1413.5
2016-Feb-03 04:31N 31°44' E 121°04'4 0.2
2016-Feb-02 09:13N 31°46' E 120°60'2 3.6
2016-Feb-02 08:33N 31°47' E 120°57'1413.6
2016-Feb-02 07:33N 31°59' E 120°50'1211.8
2016-Feb-02 06:33N 32°00' E 120°36'1110.6
2016-Feb-02 05:29N 32°01' E 120°23'  
2016-Jan-30 15:22N 32°04' E 119°56'  

Dump ship's entire track history